sensor_id;sensor_type;location;lat;lon;timestamp;P1;durP1;ratioP1;P2;durP2;ratioP2
49860;SDS011;35761;48.826;9.238;2023-04-06T11:21:49;8.98;;;5.47;;
49860;SDS011;35761;48.826;9.238;2023-04-06T11:24:20;9.90;;;5.50;;
49860;SDS011;35761;48.826;9.238;2023-04-06T11:26:54;14.70;;;6.53;;
49860;SDS011;35761;48.826;9.238;2023-04-06T11:29:28;8.95;;;5.57;;
49860;SDS011;35761;48.826;9.238;2023-04-06T11:32:03;10.73;;;6.13;;
49860;SDS011;35761;48.826;9.238;2023-04-06T11:34:36;10.40;;;5.93;;
49860;SDS011;35761;48.826;9.238;2023-04-06T11:37:11;12.55;;;5.97;;
49860;SDS011;35761;48.826;9.238;2023-04-06T11:39:43;10.30;;;5.93;;
49860;SDS011;35761;48.826;9.238;2023-04-06T11:42:22;12.15;;;5.57;;
49860;SDS011;35761;48.826;9.238;2023-04-06T11:44:53;16.52;;;7.32;;
49860;SDS011;35761;48.826;9.238;2023-04-06T11:47:28;12.48;;;6.93;;
49860;SDS011;35761;48.826;9.238;2023-04-06T11:52:40;10.70;;;5.22;;
49860;SDS011;35761;48.826;9.238;2023-04-06T11:55:12;9.93;;;5.80;;
49860;SDS011;35761;48.826;9.238;2023-04-06T11:57:45;12.55;;;6.32;;
49860;SDS011;35761;48.826;9.238;2023-04-06T12:00:17;9.05;;;5.25;;
49860;SDS011;35761;48.826;9.238;2023-04-06T12:02:48;7.85;;;5.05;;
49860;SDS011;35761;48.826;9.238;2023-04-06T12:05:19;9.88;;;5.43;;
49860;SDS011;35761;48.826;9.238;2023-04-06T12:07:54;9.93;;;5.47;;
49860;SDS011;35761;48.826;9.238;2023-04-06T12:10:28;14.55;;;5.78;;
49860;SDS011;35761;48.826;9.238;2023-04-06T12:12:59;8.93;;;5.30;;
49860;SDS011;35761;48.826;9.238;2023-04-06T12:15:31;10.25;;;4.80;;
49860;SDS011;35761;48.826;9.238;2023-04-06T12:18:04;9.10;;;5.38;;
49860;SDS011;35761;48.826;9.238;2023-04-06T12:20:35;7.22;;;4.88;;
49860;SDS011;35761;48.826;9.238;2023-04-06T12:23:08;7.45;;;5.00;;
49860;SDS011;35761;48.826;9.238;2023-04-06T12:25:39;9.00;;;4.45;;
49860;SDS011;35761;48.826;9.238;2023-04-06T12:28:10;6.50;;;4.35;;
49860;SDS011;35761;48.826;9.238;2023-04-06T12:30:40;6.47;;;4.25;;
49860;SDS011;35761;48.826;9.238;2023-04-06T12:33:11;11.50;;;6.38;;
49860;SDS011;35761;48.826;9.238;2023-04-06T12:35:42;11.07;;;4.65;;
49860;SDS011;35761;48.826;9.238;2023-04-06T12:38:15;12.15;;;4.97;;
49860;SDS011;35761;48.826;9.238;2023-04-06T12:40:47;6.03;;;4.03;;
49860;SDS011;35761;48.826;9.238;2023-04-06T12:43:17;6.18;;;4.40;;
49860;SDS011;35761;48.826;9.238;2023-04-06T12:45:48;9.13;;;5.78;;
49860;SDS011;35761;48.826;9.238;2023-04-06T12:48:19;7.70;;;4.60;;
49860;SDS011;35761;48.826;9.238;2023-04-06T12:50:53;11.25;;;5.53;;
49860;SDS011;35761;48.826;9.238;2023-04-06T12:55:57;6.60;;;4.90;;
49860;SDS011;35761;48.826;9.238;2023-04-06T12:58:28;6.65;;;4.30;;
49860;SDS011;35761;48.826;9.238;2023-04-06T13:01:00;7.45;;;4.93;;
49860;SDS011;35761;48.826;9.238;2023-04-06T13:03:35;7.32;;;4.28;;
49860;SDS011;35761;48.826;9.238;2023-04-06T13:06:06;7.43;;;4.90;;
49860;SDS011;35761;48.826;9.238;2023-04-06T13:08:40;10.90;;;5.65;;
49860;SDS011;35761;48.826;9.238;2023-04-06T13:11:11;8.05;;;5.70;;
49860;SDS011;35761;48.826;9.238;2023-04-06T13:13:42;8.57;;;5.30;;
49860;SDS011;35761;48.826;9.238;2023-04-06T13:16:12;8.68;;;5.00;;
49860;SDS011;35761;48.826;9.238;2023-04-06T13:18:43;9.02;;;5.45;;
49860;SDS011;35761;48.826;9.238;2023-04-06T13:21:14;9.73;;;5.70;;
49860;SDS011;35761;48.826;9.238;2023-04-06T13:23:50;10.63;;;5.22;;
49860;SDS011;35761;48.826;9.238;2023-04-06T13:26:21;7.35;;;5.10;;
49860;SDS011;35761;48.826;9.238;2023-04-06T13:28:52;8.32;;;5.75;;
49860;SDS011;35761;48.826;9.238;2023-04-06T13:31:23;12.88;;;5.32;;
49860;SDS011;35761;48.826;9.238;2023-04-06T13:33:54;10.88;;;5.53;;
49860;SDS011;35761;48.826;9.238;2023-04-06T13:36:25;9.68;;;4.95;;
49860;SDS011;35761;48.826;9.238;2023-04-06T13:38:59;9.13;;;5.18;;
49860;SDS011;35761;48.826;9.238;2023-04-06T13:41:30;15.93;;;5.65;;
49860;SDS011;35761;48.826;9.238;2023-04-06T13:44:00;8.52;;;5.10;;
49860;SDS011;35761;48.826;9.238;2023-04-06T13:46:31;11.48;;;6.18;;
49860;SDS011;35761;48.826;9.238;2023-04-06T13:49:01;9.65;;;4.82;;
49860;SDS011;35761;48.826;9.238;2023-04-06T13:51:32;8.45;;;4.85;;
49860;SDS011;35761;48.826;9.238;2023-04-06T13:54:06;10.20;;;6.10;;
49860;SDS011;35761;48.826;9.238;2023-04-06T13:56:36;8.38;;;5.32;;
49860;SDS011;35761;48.826;9.238;2023-04-06T13:59:07;7.55;;;4.70;;
49860;SDS011;35761;48.826;9.238;2023-04-06T14:01:37;9.38;;;5.32;;
49860;SDS011;35761;48.826;9.238;2023-04-06T14:04:08;6.63;;;5.10;;
49860;SDS011;35761;48.826;9.238;2023-04-06T14:06:38;9.10;;;5.35;;
49860;SDS011;35761;48.826;9.238;2023-04-06T14:09:13;11.38;;;6.18;;
49860;SDS011;35761;48.826;9.238;2023-04-06T14:11:44;10.52;;;6.32;;
49860;SDS011;35761;48.826;9.238;2023-04-06T14:14:14;8.75;;;5.57;;
49860;SDS011;35761;48.826;9.238;2023-04-06T14:16:45;11.52;;;5.78;;
49860;SDS011;35761;48.826;9.238;2023-04-06T14:19:16;14.77;;;6.30;;
49860;SDS011;35761;48.826;9.238;2023-04-06T14:21:47;8.43;;;4.72;;
49860;SDS011;35761;48.826;9.238;2023-04-06T14:24:20;7.38;;;4.57;;
49860;SDS011;35761;48.826;9.238;2023-04-06T14:26:51;8.68;;;4.75;;
49860;SDS011;35761;48.826;9.238;2023-04-06T14:29:22;11.85;;;5.25;;
49860;SDS011;35761;48.826;9.238;2023-04-06T14:31:53;11.02;;;6.10;;
49860;SDS011;35761;48.826;9.238;2023-04-06T14:34:26;6.82;;;4.93;;
49860;SDS011;35761;48.826;9.238;2023-04-06T14:36:57;8.60;;;4.75;;
49860;SDS011;35761;48.826;9.238;2023-04-06T14:39:33;10.63;;;5.43;;
49860;SDS011;35761;48.826;9.238;2023-04-06T14:42:03;9.98;;;6.00;;
49860;SDS011;35761;48.826;9.238;2023-04-06T14:44:34;8.48;;;5.72;;
49860;SDS011;35761;48.826;9.238;2023-04-06T14:47:09;8.95;;;5.47;;
49860;SDS011;35761;48.826;9.238;2023-04-06T14:49:42;12.27;;;5.93;;
49860;SDS011;35761;48.826;9.238;2023-04-06T14:52:12;10.98;;;5.75;;
49860;SDS011;35761;48.826;9.238;2023-04-06T14:54:45;7.82;;;5.07;;
49860;SDS011;35761;48.826;9.238;2023-04-06T14:57:16;8.00;;;5.28;;
49860;SDS011;35761;48.826;9.238;2023-04-06T14:59:47;8.40;;;5.05;;
49860;SDS011;35761;48.826;9.238;2023-04-06T15:02:17;10.25;;;5.20;;
49860;SDS011;35761;48.826;9.238;2023-04-06T15:04:48;15.52;;;5.13;;
49860;SDS011;35761;48.826;9.238;2023-04-06T15:07:20;8.10;;;5.13;;
49860;SDS011;35761;48.826;9.238;2023-04-06T15:09:53;8.70;;;5.25;;
49860;SDS011;35761;48.826;9.238;2023-04-06T15:12:23;9.77;;;5.25;;
49860;SDS011;35761;48.826;9.238;2023-04-06T15:14:56;7.70;;;5.10;;
49860;SDS011;35761;48.826;9.238;2023-04-06T15:17:27;9.85;;;4.70;;
49860;SDS011;35761;48.826;9.238;2023-04-06T15:19:58;7.88;;;5.38;;
49860;SDS011;35761;48.826;9.238;2023-04-06T15:22:29;7.60;;;4.55;;
49860;SDS011;35761;48.826;9.238;2023-04-06T15:25:02;8.15;;;5.82;;
49860;SDS011;35761;48.826;9.238;2023-04-06T15:27:33;10.73;;;5.00;;
49860;SDS011;35761;48.826;9.238;2023-04-06T15:30:04;8.27;;;5.05;;
49860;SDS011;35761;48.826;9.238;2023-04-06T15:32:36;11.02;;;5.30;;
49860;SDS011;35761;48.826;9.238;2023-04-06T15:35:09;8.02;;;5.20;;
49860;SDS011;35761;48.826;9.238;2023-04-06T15:37:41;11.85;;;6.13;;
49860;SDS011;35761;48.826;9.238;2023-04-06T15:40:14;8.65;;;5.28;;
49860;SDS011;35761;48.826;9.238;2023-04-06T15:42:45;10.90;;;5.20;;
49860;SDS011;35761;48.826;9.238;2023-04-06T15:45:15;7.88;;;4.80;;
49860;SDS011;35761;48.826;9.238;2023-04-06T15:47:46;12.20;;;7.05;;
49860;SDS011;35761;48.826;9.238;2023-04-06T15:50:17;8.30;;;5.65;;
49860;SDS011;35761;48.826;9.238;2023-04-06T15:52:47;13.93;;;9.15;;
49860;SDS011;35761;48.826;9.238;2023-04-06T15:55:20;21.92;;;9.85;;
49860;SDS011;35761;48.826;9.238;2023-04-06T15:57:51;24.13;;;16.17;;
49860;SDS011;35761;48.826;9.238;2023-04-06T16:00:22;12.45;;;8.70;;
49860;SDS011;35761;48.826;9.238;2023-04-06T16:02:54;11.57;;;6.28;;
49860;SDS011;35761;48.826;9.238;2023-04-06T16:05:27;9.88;;;6.40;;
49860;SDS011;35761;48.826;9.238;2023-04-06T16:08:01;10.95;;;7.68;;
49860;SDS011;35761;48.826;9.238;2023-04-06T16:10:35;12.52;;;6.82;;
49860;SDS011;35761;48.826;9.238;2023-04-06T16:13:06;8.48;;;5.38;;
49860;SDS011;35761;48.826;9.238;2023-04-06T16:15:37;10.40;;;5.38;;
49860;SDS011;35761;48.826;9.238;2023-04-06T16:18:07;9.55;;;4.78;;
49860;SDS011;35761;48.826;9.238;2023-04-06T16:20:37;8.20;;;5.00;;
49860;SDS011;35761;48.826;9.238;2023-04-06T16:23:08;8.35;;;5.43;;
49860;SDS011;35761;48.826;9.238;2023-04-06T16:25:41;10.85;;;5.70;;
49860;SDS011;35761;48.826;9.238;2023-04-06T16:28:12;13.75;;;5.63;;
49860;SDS011;35761;48.826;9.238;2023-04-06T16:30:43;10.93;;;5.60;;
49860;SDS011;35761;48.826;9.238;2023-04-06T16:33:13;9.57;;;5.15;;
49860;SDS011;35761;48.826;9.238;2023-04-06T16:35:45;12.05;;;5.93;;
49860;SDS011;35761;48.826;9.238;2023-04-06T16:38:17;9.95;;;5.32;;
49860;SDS011;35761;48.826;9.238;2023-04-06T16:41:00;10.90;;;5.40;;
49860;SDS011;35761;48.826;9.238;2023-04-06T16:43:31;12.20;;;6.32;;
49860;SDS011;35761;48.826;9.238;2023-04-06T16:46:01;11.82;;;5.15;;
49860;SDS011;35761;48.826;9.238;2023-04-06T16:48:32;13.80;;;5.65;;
49860;SDS011;35761;48.826;9.238;2023-04-06T16:51:03;12.00;;;7.57;;
49860;SDS011;35761;48.826;9.238;2023-04-06T16:53:35;11.23;;;6.22;;
49860;SDS011;35761;48.826;9.238;2023-04-06T16:56:09;12.20;;;6.60;;
49860;SDS011;35761;48.826;9.238;2023-04-06T16:58:39;12.88;;;7.43;;
49860;SDS011;35761;48.826;9.238;2023-04-06T17:01:16;9.75;;;5.82;;
49860;SDS011;35761;48.826;9.238;2023-04-06T17:03:48;10.32;;;6.57;;
49860;SDS011;35761;48.826;9.238;2023-04-06T17:06:19;10.45;;;6.10;;
49860;SDS011;35761;48.826;9.238;2023-04-06T17:08:50;11.05;;;7.50;;
49860;SDS011;35761;48.826;9.238;2023-04-06T17:11:23;16.02;;;9.00;;
49860;SDS011;35761;48.826;9.238;2023-04-06T17:14:11;15.75;;;8.18;;
49860;SDS011;35761;48.826;9.238;2023-04-06T17:16:44;11.73;;;7.78;;
49860;SDS011;35761;48.826;9.238;2023-04-06T17:19:14;11.23;;;7.05;;
49860;SDS011;35761;48.826;9.238;2023-04-06T17:21:45;13.23;;;6.53;;
49860;SDS011;35761;48.826;9.238;2023-04-06T17:24:17;11.60;;;6.55;;
49860;SDS011;35761;48.826;9.238;2023-04-06T17:26:50;10.75;;;5.80;;
49860;SDS011;35761;48.826;9.238;2023-04-06T17:29:22;10.73;;;6.68;;
49860;SDS011;35761;48.826;9.238;2023-04-06T17:31:52;10.90;;;5.80;;
49860;SDS011;35761;48.826;9.238;2023-04-06T17:34:25;10.27;;;5.70;;
49860;SDS011;35761;48.826;9.238;2023-04-06T17:36:56;10.38;;;5.53;;
49860;SDS011;35761;48.826;9.238;2023-04-06T17:39:26;8.82;;;5.22;;
49860;SDS011;35761;48.826;9.238;2023-04-06T17:41:59;8.80;;;4.97;;
49860;SDS011;35761;48.826;9.238;2023-04-06T17:44:31;10.35;;;4.88;;
49860;SDS011;35761;48.826;9.238;2023-04-06T17:47:02;10.88;;;5.05;;
49860;SDS011;35761;48.826;9.238;2023-04-06T17:49:32;8.75;;;5.22;;
49860;SDS011;35761;48.826;9.238;2023-04-06T17:52:02;7.38;;;4.70;;
49860;SDS011;35761;48.826;9.238;2023-04-06T17:54:33;10.52;;;5.40;;
49860;SDS011;35761;48.826;9.238;2023-04-06T17:57:07;12.30;;;4.85;;
49860;SDS011;35761;48.826;9.238;2023-04-06T17:59:38;10.07;;;5.55;;
49860;SDS011;35761;48.826;9.238;2023-04-06T18:02:11;10.35;;;5.30;;
49860;SDS011;35761;48.826;9.238;2023-04-06T18:04:42;8.55;;;4.85;;
49860;SDS011;35761;48.826;9.238;2023-04-06T18:07:13;8.70;;;4.88;;
49860;SDS011;35761;48.826;9.238;2023-04-06T18:09:44;10.93;;;5.35;;
49860;SDS011;35761;48.826;9.238;2023-04-06T18:12:17;13.35;;;5.50;;
49860;SDS011;35761;48.826;9.238;2023-04-06T18:14:47;9.18;;;5.03;;
49860;SDS011;35761;48.826;9.238;2023-04-06T18:17:18;9.30;;;5.47;;
49860;SDS011;35761;48.826;9.238;2023-04-06T18:19:48;9.20;;;5.70;;
49860;SDS011;35761;48.826;9.238;2023-04-06T18:22:19;9.43;;;5.18;;
49860;SDS011;35761;48.826;9.238;2023-04-06T18:24:49;9.43;;;4.55;;
49860;SDS011;35761;48.826;9.238;2023-04-06T18:27:22;11.13;;;5.38;;
49860;SDS011;35761;48.826;9.238;2023-04-06T18:29:53;10.75;;;5.20;;
49860;SDS011;35761;48.826;9.238;2023-04-06T18:32:25;8.50;;;4.95;;
49860;SDS011;35761;48.826;9.238;2023-04-06T18:34:56;10.07;;;4.93;;
49860;SDS011;35761;48.826;9.238;2023-04-06T18:37:27;8.90;;;4.60;;
49860;SDS011;35761;48.826;9.238;2023-04-06T18:39:57;8.63;;;4.70;;
49860;SDS011;35761;48.826;9.238;2023-04-06T18:42:30;7.05;;;4.32;;
49860;SDS011;35761;48.826;9.238;2023-04-06T18:45:01;8.63;;;4.60;;
49860;SDS011;35761;48.826;9.238;2023-04-06T18:47:32;7.38;;;4.13;;
49860;SDS011;35761;48.826;9.238;2023-04-06T18:50:03;8.98;;;4.40;;
49860;SDS011;35761;48.826;9.238;2023-04-06T18:52:35;8.65;;;4.38;;
49860;SDS011;35761;48.826;9.238;2023-04-06T18:55:06;8.93;;;4.45;;
49860;SDS011;35761;48.826;9.238;2023-04-06T18:57:40;9.82;;;4.55;;
49860;SDS011;35761;48.826;9.238;2023-04-06T19:00:11;14.68;;;4.53;;
49860;SDS011;35761;48.826;9.238;2023-04-06T19:02:43;8.48;;;4.43;;
49860;SDS011;35761;48.826;9.238;2023-04-06T19:05:14;7.78;;;4.57;;
49860;SDS011;35761;48.826;9.238;2023-04-06T19:07:45;7.63;;;4.80;;
49860;SDS011;35761;48.826;9.238;2023-04-06T19:10:18;14.98;;;4.47;;
49860;SDS011;35761;48.826;9.238;2023-04-06T19:12:51;10.80;;;5.10;;
49860;SDS011;35761;48.826;9.238;2023-04-06T19:15:22;8.68;;;5.00;;
49860;SDS011;35761;48.826;9.238;2023-04-06T19:17:52;6.47;;;3.92;;
49860;SDS011;35761;48.826;9.238;2023-04-06T19:20:23;9.60;;;4.13;;
49860;SDS011;35761;48.826;9.238;2023-04-06T19:22:54;8.38;;;3.80;;
49860;SDS011;35761;48.826;9.238;2023-04-06T19:25:24;7.97;;;4.65;;
49860;SDS011;35761;48.826;9.238;2023-04-06T19:27:57;8.38;;;3.72;;
49860;SDS011;35761;48.826;9.238;2023-04-06T19:30:28;8.27;;;3.50;;
49860;SDS011;35761;48.826;9.238;2023-04-06T19:32:59;7.13;;;3.50;;
49860;SDS011;35761;48.826;9.238;2023-04-06T19:35:30;7.32;;;4.18;;
49860;SDS011;35761;48.826;9.238;2023-04-06T19:38:00;8.73;;;3.90;;
49860;SDS011;35761;48.826;9.238;2023-04-06T19:40:30;12.23;;;4.45;;
49860;SDS011;35761;48.826;9.238;2023-04-06T19:43:04;8.80;;;4.32;;
49860;SDS011;35761;48.826;9.238;2023-04-06T19:45:34;11.55;;;4.75;;
49860;SDS011;35761;48.826;9.238;2023-04-06T19:48:05;9.48;;;5.13;;
49860;SDS011;35761;48.826;9.238;2023-04-06T19:50:35;8.70;;;4.53;;
49860;SDS011;35761;48.826;9.238;2023-04-06T19:53:06;9.52;;;4.35;;
49860;SDS011;35761;48.826;9.238;2023-04-06T19:55:36;6.38;;;3.38;;
49860;SDS011;35761;48.826;9.238;2023-04-06T19:58:10;7.03;;;3.63;;
49860;SDS011;35761;48.826;9.238;2023-04-06T20:00:41;7.25;;;2.90;;
49860;SDS011;35761;48.826;9.238;2023-04-06T20:03:11;4.82;;;3.00;;
49860;SDS011;35761;48.826;9.238;2023-04-06T20:05:42;5.10;;;2.90;;
49860;SDS011;35761;48.826;9.238;2023-04-06T20:08:13;5.05;;;3.08;;
49860;SDS011;35761;48.826;9.238;2023-04-06T20:10:44;6.55;;;3.72;;
49860;SDS011;35761;48.826;9.238;2023-04-06T20:13:18;11.05;;;3.25;;
49860;SDS011;35761;48.826;9.238;2023-04-06T20:15:49;9.73;;;2.90;;
49860;SDS011;35761;48.826;9.238;2023-04-06T20:18:19;3.28;;;2.08;;
49860;SDS011;35761;48.826;9.238;2023-04-06T20:20:50;4.60;;;2.00;;
49860;SDS011;35761;48.826;9.238;2023-04-06T20:23:21;3.58;;;1.95;;
49860;SDS011;35761;48.826;9.238;2023-04-06T20:25:52;5.80;;;2.40;;
49860;SDS011;35761;48.826;9.238;2023-04-06T20:28:25;4.90;;;1.77;;
49860;SDS011;35761;48.826;9.238;2023-04-06T20:30:55;2.83;;;1.60;;
49860;SDS011;35761;48.826;9.238;2023-04-06T20:33:26;3.88;;;2.38;;
49860;SDS011;35761;48.826;9.238;2023-04-06T20:35:56;3.80;;;2.30;;
49860;SDS011;35761;48.826;9.238;2023-04-06T20:38:27;4.78;;;2.25;;
49860;SDS011;35761;48.826;9.238;2023-04-06T20:40:59;4.53;;;2.17;;
49860;SDS011;35761;48.826;9.238;2023-04-06T20:43:33;8.65;;;2.03;;
49860;SDS011;35761;48.826;9.238;2023-04-06T20:46:03;6.85;;;2.53;;
49860;SDS011;35761;48.826;9.238;2023-04-06T20:48:35;6.40;;;2.33;;
49860;SDS011;35761;48.826;9.238;2023-04-06T20:51:05;4.53;;;2.38;;
49860;SDS011;35761;48.826;9.238;2023-04-06T20:53:36;3.92;;;2.33;;
49860;SDS011;35761;48.826;9.238;2023-04-06T20:56:06;5.95;;;2.88;;
49860;SDS011;35761;48.826;9.238;2023-04-06T20:58:39;4.43;;;2.53;;
49860;SDS011;35761;48.826;9.238;2023-04-06T21:01:11;4.38;;;2.47;;
49860;SDS011;35761;48.826;9.238;2023-04-06T21:03:43;4.43;;;2.20;;
49860;SDS011;35761;48.826;9.238;2023-04-06T21:06:14;5.47;;;2.90;;
49860;SDS011;35761;48.826;9.238;2023-04-06T21:08:45;5.57;;;3.50;;
49860;SDS011;35761;48.826;9.238;2023-04-06T21:11:15;5.47;;;3.38;;
49860;SDS011;35761;48.826;9.238;2023-04-06T21:13:49;8.13;;;3.20;;
49860;SDS011;35761;48.826;9.238;2023-04-06T21:16:20;6.53;;;3.83;;
49860;SDS011;35761;48.826;9.238;2023-04-06T21:18:51;7.95;;;4.18;;
49860;SDS011;35761;48.826;9.238;2023-04-06T21:21:22;7.93;;;4.28;;
49860;SDS011;35761;48.826;9.238;2023-04-06T21:23:52;7.05;;;3.72;;
49860;SDS011;35761;48.826;9.238;2023-04-06T21:26:24;6.45;;;3.72;;
49860;SDS011;35761;48.826;9.238;2023-04-06T21:28:57;6.70;;;3.53;;
49860;SDS011;35761;48.826;9.238;2023-04-06T21:31:27;7.45;;;3.08;;
49860;SDS011;35761;48.826;9.238;2023-04-06T21:33:58;7.32;;;3.72;;
49860;SDS011;35761;48.826;9.238;2023-04-06T21:36:28;9.38;;;3.50;;
49860;SDS011;35761;48.826;9.238;2023-04-06T21:38:59;10.13;;;3.65;;
49860;SDS011;35761;48.826;9.238;2023-04-06T21:41:30;8.02;;;3.47;;
49860;SDS011;35761;48.826;9.238;2023-04-06T21:44:03;5.55;;;3.42;;
49860;SDS011;35761;48.826;9.238;2023-04-06T21:46:34;6.32;;;4.03;;
49860;SDS011;35761;48.826;9.238;2023-04-06T21:49:05;9.50;;;4.35;;
49860;SDS011;35761;48.826;9.238;2023-04-06T21:51:35;7.53;;;3.72;;
49860;SDS011;35761;48.826;9.238;2023-04-06T21:54:07;6.20;;;4.00;;
49860;SDS011;35761;48.826;9.238;2023-04-06T21:56:37;6.75;;;4.10;;
49860;SDS011;35761;48.826;9.238;2023-04-06T21:59:10;6.32;;;3.90;;
49860;SDS011;35761;48.826;9.238;2023-04-06T22:01:41;6.93;;;4.30;;
49860;SDS011;35761;48.826;9.238;2023-04-06T22:04:12;8.80;;;4.43;;
49860;SDS011;35761;48.826;9.238;2023-04-06T22:06:43;6.25;;;4.20;;
49860;SDS011;35761;48.826;9.238;2023-04-06T22:09:14;6.50;;;4.20;;
49860;SDS011;35761;48.826;9.238;2023-04-06T22:11:44;8.32;;;4.53;;
49860;SDS011;35761;48.826;9.238;2023-04-06T22:14:17;10.00;;;5.25;;
49860;SDS011;35761;48.826;9.238;2023-04-06T22:16:48;9.77;;;5.30;;
49860;SDS011;35761;48.826;9.238;2023-04-06T22:19:18;8.25;;;5.07;;
49860;SDS011;35761;48.826;9.238;2023-04-06T22:21:49;8.50;;;5.60;;
49860;SDS011;35761;48.826;9.238;2023-04-06T22:24:19;9.00;;;5.45;;
49860;SDS011;35761;48.826;9.238;2023-04-06T22:26:50;7.65;;;5.03;;
49860;SDS011;35761;48.826;9.238;2023-04-06T22:29:23;10.90;;;6.00;;
49860;SDS011;35761;48.826;9.238;2023-04-06T22:31:53;9.18;;;5.50;;
49860;SDS011;35761;48.826;9.238;2023-04-06T22:34:24;8.35;;;5.35;;
49860;SDS011;35761;48.826;9.238;2023-04-06T22:36:55;8.73;;;5.53;;
49860;SDS011;35761;48.826;9.238;2023-04-06T22:39:25;7.95;;;5.78;;
49860;SDS011;35761;48.826;9.238;2023-04-06T22:41:56;11.13;;;5.78;;
49860;SDS011;35761;48.826;9.238;2023-04-06T22:44:29;8.90;;;5.82;;
49860;SDS011;35761;48.826;9.238;2023-04-06T22:46:59;9.07;;;5.70;;
49860;SDS011;35761;48.826;9.238;2023-04-06T22:49:30;9.48;;;5.90;;
49860;SDS011;35761;48.826;9.238;2023-04-06T22:52:00;8.75;;;5.80;;
49860;SDS011;35761;48.826;9.238;2023-04-06T22:54:31;7.47;;;5.20;;
49860;SDS011;35761;48.826;9.238;2023-04-06T22:57:01;8.27;;;5.55;;
49860;SDS011;35761;48.826;9.238;2023-04-06T22:59:35;10.40;;;5.38;;
49860;SDS011;35761;48.826;9.238;2023-04-06T23:02:05;12.10;;;5.90;;
49860;SDS011;35761;48.826;9.238;2023-04-06T23:04:36;10.10;;;5.43;;
49860;SDS011;35761;48.826;9.238;2023-04-06T23:07:06;8.00;;;5.35;;
49860;SDS011;35761;48.826;9.238;2023-04-06T23:09:40;8.57;;;5.57;;
49860;SDS011;35761;48.826;9.238;2023-04-06T23:12:11;8.68;;;5.80;;
49860;SDS011;35761;48.826;9.238;2023-04-06T23:14:44;10.30;;;5.78;;
49860;SDS011;35761;48.826;9.238;2023-04-06T23:17:15;11.73;;;5.60;;
49860;SDS011;35761;48.826;9.238;2023-04-06T23:19:45;9.68;;;5.85;;
49860;SDS011;35761;48.826;9.238;2023-04-06T23:22:17;8.23;;;5.38;;
49860;SDS011;35761;48.826;9.238;2023-04-06T23:24:47;9.75;;;5.88;;
49860;SDS011;35761;48.826;9.238;2023-04-06T23:27:18;8.15;;;5.95;;
49860;SDS011;35761;48.826;9.238;2023-04-06T23:29:51;8.95;;;6.15;;
49860;SDS011;35761;48.826;9.238;2023-04-06T23:32:21;14.98;;;7.45;;
49860;SDS011;35761;48.826;9.238;2023-04-06T23:34:52;11.93;;;5.55;;
49860;SDS011;35761;48.826;9.238;2023-04-06T23:37:22;10.23;;;6.38;;
49860;SDS011;35761;48.826;9.238;2023-04-06T23:39:53;10.45;;;6.28;;
49860;SDS011;35761;48.826;9.238;2023-04-06T23:42:24;10.52;;;6.55;;
49860;SDS011;35761;48.826;9.238;2023-04-06T23:44:57;12.38;;;6.10;;
49860;SDS011;35761;48.826;9.238;2023-04-06T23:47:28;10.00;;;6.03;;
49860;SDS011;35761;48.826;9.238;2023-04-06T23:49:58;10.32;;;6.97;;
49860;SDS011;35761;48.826;9.238;2023-04-06T23:52:29;11.40;;;7.32;;
49860;SDS011;35761;48.826;9.238;2023-04-06T23:54:59;10.48;;;7.13;;
49860;SDS011;35761;48.826;9.238;2023-04-06T23:57:31;12.35;;;6.78;;
